Weather reports worldwide

Advertisment
La Molina, Spain (8117): temperature & dewpoint: 16.06.2018 15:00:00 - 22.06.2018 15:00:00 (CEST)La Molina, Spain (8117): wind speed & gusts: 16.06.2018 15:00:00 - 22.06.2018 15:00:00 (CEST)La Molina, Spain (8117): wind direction: 16.06.2018 15:00:00 - 22.06.2018 15:00:00 (CEST)La Molina, Spain (8117): visibility: 16.06.2018 15:00:00 - 22.06.2018 15:00:00 (CEST)La Molina, Spain (8117): sunshine duration: 16.06.2018 15:00:00 - 22.06.2018 15:00:00 (CEST)La Molina, Spain (8117): precipitation: 16.06.2018 15:00:00 - 22.06.2018 15:00:00 (CEST)
Date & Time tt [°C] td [°C] ff [km/h] ff [kn] fx [km/h] fx [kn] dd vv [km] sd [min] rr [mm]
22.06.2018 15:00:00 - - - - - - - - - -
22.06.2018 14:00:00 21,8 11,8 6 3 23 12 N 12 59 -
22.06.2018 13:00:00 20,4 11,6 12 7 22 12 NNW 10 47 0,0
22.06.2018 12:00:00 19,5 11,0 9 5 18 10 NNW 12 60 0,0
22.06.2018 11:00:00 18,4 10,3 9 5 16 8 NNW 10 60 0,0
22.06.2018 10:00:00 17,4 11,2 8 4 13 7 NNW 12 60 0,0
22.06.2018 09:00:00 16,5 10,6 5 3 8 4 NNW 12 60 0,0
22.06.2018 08:00:00 15,2 9,8 4 2 9 5 E 12 30 -
22.06.2018 07:00:00 12,4 9,9 5 3 9 5 S 11 0 0,0
22.06.2018 06:00:00 11,5 8,7 6 4 11 6 S 12 0 0,0
22.06.2018 05:00:00 11,5 8,4 6 4 10 5 S 13 0 0,0
22.06.2018 04:00:00 11,6 8,3 4 2 12 6 SSE 20 0 0,0
22.06.2018 03:00:00 12,2 8,7 7 4 13 7 S 20 0 0,0
22.06.2018 02:00:00 12,6 9,6 7 4 12 7 S 20 0 -
22.06.2018 01:00:00 13,7 10,3 9 5 16 9 SSW 12 0 0,0
22.06.2018 00:00:00 13,2 9,8 4 2 11 6 SW 12 0 0,0
21.06.2018 23:00:00 14,9 10,5 6 3 9 5 S 13 0 0,0
21.06.2018 22:00:00 16,7 11,4 5 3 10 6 SSW 11 0 0,0
21.06.2018 21:00:00 17,8 13,1 2 1 12 6 NW 10 0 0,0
21.06.2018 20:00:00 19,0 12,2 4 2 18 10 W 19 9 -
21.06.2018 19:00:00 19,7 12,7 10 5 21 11 SSW 18 27 0,0
21.06.2018 18:00:00 18,5 11,3 14 8 25 13 S 19 10 0,0
21.06.2018 17:00:00 19,5 11,2 11 6 27 14 SE 20 25 0,0
21.06.2018 16:00:00 21,8 12,3 10 5 29 16 ESE 19 46 0,0
21.06.2018 15:00:00 20,8 11,7 9 5 25 14 SE 19 41 0,0
21.06.2018 14:00:00 21,7 10,8 5 3 19 10 ESE 17 47 -
21.06.2018 13:00:00 19,5 10,8 5 3 13 7 SW 11 7 0,0
21.06.2018 12:00:00 20,0 10,6 8 4 16 9 ESE 14 33 0,0
21.06.2018 11:00:00 20,4 9,9 3 2 15 8 ENE 14 60 0,0
21.06.2018 10:00:00 18,9 9,1 6 3 13 7 NW 14 60 0,0
21.06.2018 09:00:00 17,1 11,2 1 1 5 3 ESE 13 60 0,0
21.06.2018 08:00:00 14,1 11,1 3 1 8 5 SE 12 49 -
21.06.2018 07:00:00 11,1 9,9 5 3 11 6 SE 10 0 0,0
21.06.2018 06:00:00 11,1 9,9 6 4 12 6 SE 10 0 0,0
21.06.2018 05:00:00 11,7 10,3 6 3 13 7 SE 12 0 0,0
21.06.2018 04:00:00 11,8 10,4 6 4 13 7 ESE 10 0 0,0
21.06.2018 03:00:00 12,1 10,5 6 3 11 6 ESE 12 0 0,0
21.06.2018 02:00:00 13,1 10,8 3 2 12 6 ESE 8 0 -
21.06.2018 01:00:00 13,2 11,1 6 4 12 7 SE 8 0 0,0
21.06.2018 00:00:00 13,2 10,7 5 3 10 6 SE 8 0 0,0
20.06.2018 23:00:00 14,4 11,0 5 3 10 6 SSE 8 0 0,0
20.06.2018 22:00:00 16,0 10,8 9 5 27 14 SE 8 0 0,0
20.06.2018 21:00:00 16,6 11,3 13 7 29 16 S 8 1 0,0
20.06.2018 20:00:00 17,2 12,3 11 6 32 17 SE 8 12 -
20.06.2018 19:00:00 18,4 11,7 5 3 29 16 SE 8 4 0,0
20.06.2018 18:00:00 20,7 10,8 11 6 31 17 ENE 9 58 0,0
20.06.2018 17:00:00 21,7 10,2 11 6 35 19 SSE 10 60 0,0
20.06.2018 16:00:00 21,8 9,9 13 7 31 17 SE 10 60 0,0
20.06.2018 15:00:00 21,9 9,4 11 6 31 17 SSE 9 60 0,0
20.06.2018 14:00:00 21,4 8,7 10 5 29 15 ESE 10 60 -
20.06.2018 13:00:00 21,3 6,4 9 5 20 11 SW 9 60 0,0
20.06.2018 12:00:00 20,7 6,5 9 5 19 10 SSW 9 60 0,0
20.06.2018 11:00:00 19,2 6,7 8 4 17 9 NNW 8 60 0,0
20.06.2018 10:00:00 17,9 7,1 7 4 14 7 N 9 60 0,0
20.06.2018 09:00:00 17,5 4,5 8 5 16 9 E 10 60 0,0
20.06.2018 08:00:00 13,8 4,6 2 1 9 5 SE 10 50 -
20.06.2018 07:00:00 10,2 3,2 6 3 10 5 SE 10 0 0,0
20.06.2018 06:00:00 9,9 3,0 7 4 11 6 SE 10 0 0,0
20.06.2018 05:00:00 10,4 4,5 6 4 10 6 SE 20 0 0,0
20.06.2018 04:00:00 10,6 1,1 6 3 14 8 SE 20 0 0,0
20.06.2018 03:00:00 10,4 1,3 5 3 11 6 SE 20 0 0,0
20.06.2018 02:00:00 11,3 1,3 5 3 13 7 SE 20 0 -
20.06.2018 01:00:00 13,0 -0,2 10 5 16 9 SE 20 0 0,0
20.06.2018 00:00:00 12,8 10,5 8 4 10 6 ESE 20 0 0,0
19.06.2018 23:00:00 12,9 10,6 6 4 9 5 ESE 20 0 0,0
19.06.2018 22:00:00 14,4 10,8 6 3 24 13 SE 20 0 0,0
19.06.2018 21:00:00 17,3 11,1 10 6 26 14 S 20 29 0,0
19.06.2018 20:00:00 17,4 11,4 12 7 31 17 SSE 20 42 -
19.06.2018 19:00:00 19,5 12,2 12 7 32 18 SE 20 60 0,0
19.06.2018 18:00:00 20,0 12,5 12 6 27 15 SE 20 60 0,0
19.06.2018 17:00:00 20,4 13,2 10 6 32 18 SSE 20 60 0,0
19.06.2018 16:00:00 20,5 12,0 7 4 29 16 ESE 20 60 0,0
19.06.2018 15:00:00 19,9 12,1 14 8 26 14 E 20 60 0,0
19.06.2018 14:00:00 20,2 11,9 12 6 23 13 SE 20 60 -
19.06.2018 13:00:00 19,6 10,0 10 5 21 12 E 20 60 0,0
19.06.2018 12:00:00 18,8 3,8 6 4 16 8 WNW 19 60 0,0
19.06.2018 11:00:00 17,4 4,4 4 2 13 7 NNW 20 60 0,0
19.06.2018 10:00:00 16,1 1,8 5 3 14 7 SSW 20 60 0,0
19.06.2018 09:00:00 14,0 2,9 7 4 14 7 W 20 60 0,0
19.06.2018 08:00:00 10,5 4,2 5 3 9 5 S 20 50 -
19.06.2018 07:00:00 6,8 3,1 3 2 11 6 SSW 20 0 0,0
19.06.2018 06:00:00 7,2 3,0 6 3 11 6 S 20 0 0,0
19.06.2018 05:00:00 7,5 1,5 4 2 10 5 SE 20 0 0,0
19.06.2018 04:00:00 7,2 2,9 6 3 10 6 SE 20 0 0,0
19.06.2018 03:00:00 8,5 3,0 5 3 10 5 SE 20 0 0,0
19.06.2018 02:00:00 8,3 3,6 8 4 11 6 SSW 20 0 -
19.06.2018 01:00:00 8,4 3,5 5 3 10 5 S 20 0 0,0
19.06.2018 00:00:00 9,2 4,2 7 4 10 5 S 20 0 0,0
18.06.2018 23:00:00 10,1 5,5 3 2 9 5 N 20 0 0,0
18.06.2018 22:00:00 11,4 6,4 4 2 7 4 SSE 19 0 0,0
18.06.2018 21:00:00 16,2 6,8 5 3 15 8 W 20 50 0,0
18.06.2018 20:00:00 18,8 5,6 6 3 19 10 NW 20 60 -
18.06.2018 19:00:00 19,0 6,8 9 5 26 14 N 20 60 0,0
18.06.2018 18:00:00 19,5 6,2 11 6 27 15 N 20 60 0,0
18.06.2018 17:00:00 19,5 6,2 12 6 28 15 NNW 20 60 0,0
18.06.2018 16:00:00 19,4 6,8 8 4 30 16 NNW 20 60 0,0
18.06.2018 15:00:00 18,8 8,8 12 7 26 14 N 19 57 0,0
18.06.2018 14:00:00 17,8 7,3 13 7 31 17 NNW 20 56 -
18.06.2018 13:00:00 17,2 7,8 10 6 26 14 NW 18 60 0,0
18.06.2018 12:00:00 16,8 6,8 10 6 22 12 NW 20 60 0,0
18.06.2018 11:00:00 15,5 5,9 8 4 19 11 NW 20 60 0,0
18.06.2018 10:00:00 14,2 6,2 9 5 27 15 NW 20 60 0,0
18.06.2018 09:00:00 13,5 5,7 7 4 16 9 NW 20 60 0,0
18.06.2018 08:00:00 12,8 5,5 3 1 21 11 W 20 50 -
18.06.2018 07:00:00 10,4 4,8 7 4 15 8 W 20 0 0,0
18.06.2018 06:00:00 9,0 3,9 8 4 12 7 S 20 0 0,0
18.06.2018 05:00:00 10,0 4,1 7 4 16 9 WSW 20 0 0,0
18.06.2018 04:00:00 9,2 4,5 5 3 14 8 S 20 0 0,0
18.06.2018 03:00:00 10,2 4,8 8 4 18 10 SW 20 0 0,0
18.06.2018 02:00:00 10,3 4,5 7 4 18 10 WSW 20 0 -
18.06.2018 01:00:00 11,0 3,9 6 4 16 9 SSW 20 0 0,0
18.06.2018 00:00:00 11,0 3,6 4 2 14 8 SE 20 0 0,0
17.06.2018 23:00:00 11,5 3,6 8 4 19 10 SW 20 0 0,0
17.06.2018 22:00:00 12,1 5,0 6 4 13 7 SW 20 0 0,0
17.06.2018 21:00:00 14,5 11,2 2 1 12 7 SSE 20 4 0,0
17.06.2018 20:00:00 16,1 11,2 9 5 22 12 ESE 20 9 -
17.06.2018 19:00:00 16,9 11,0 6 3 26 14 SSW 20 25 0,0
17.06.2018 18:00:00 16,7 10,5 14 8 23 12 S 20 30 0,0
17.06.2018 17:00:00 17,8 10,2 9 5 30 16 SSE 20 56 0,0
17.06.2018 16:00:00 18,5 10,5 12 7 27 15 S 20 60 0,0
17.06.2018 15:00:00 19,1 11,1 11 6 26 14 SSW 20 55 0,0
17.06.2018 14:00:00 18,1 8,9 9 5 24 13 E 20 53 -
17.06.2018 13:00:00 18,7 7,1 8 5 16 9 NNW 20 60 0,0
17.06.2018 12:00:00 17,7 3,9 6 3 12 7 N 20 60 0,0
17.06.2018 11:00:00 17,1 2,7 5 3 12 6 NW 19 60 0,0
17.06.2018 10:00:00 15,5 0,9 3 2 9 5 NNW 20 60 0,0
17.06.2018 09:00:00 13,5 0,5 3 2 5 3 SE 20 60 0,0
17.06.2018 08:00:00 10,6 0,0 3 2 9 5 E 20 48 -
17.06.2018 07:00:00 7,6 0,8 4 2 10 5 SE 20 0 0,0
17.06.2018 06:00:00 7,1 2,1 4 2 9 5 ESE 20 0 0,0
17.06.2018 05:00:00 7,7 4,1 7 4 9 5 SSE 20 0 0,0
17.06.2018 04:00:00 8,4 2,7 5 3 10 6 SE 20 0 0,0
17.06.2018 03:00:00 10,1 2,7 4 2 8 4 S 20 0 0,0
17.06.2018 02:00:00 11,2 5,3 3 1 7 4 WSW 20 0 -
17.06.2018 01:00:00 11,9 5,8 3 2 11 6 SE 20 0 0,0
17.06.2018 00:00:00 12,6 7,3 4 2 8 4 E 20 0 0,0
16.06.2018 23:00:00 13,1 11,0 4 2 8 5 ENE 19 0 0,0
16.06.2018 22:00:00 14,1 11,4 3 2 12 6 SW 16 0 0,0
16.06.2018 21:00:00 14,9 11,3 6 4 21 11 SW 16 0 0,0
16.06.2018 20:00:00 15,4 11,0 11 6 24 13 SSW 10 2 -
16.06.2018 19:00:00 16,3 10,4 13 7 28 15 S 20 19 0,0
16.06.2018 18:00:00 18,4 11,2 12 7 32 17 S 20 51 0,0
16.06.2018 17:00:00 17,5 11,3 9 5 30 16 SSW 20 43 0,0
16.06.2018 16:00:00 18,0 11,6 14 8 30 16 SE 20 59 0,0
16.06.2018 15:00:00 18,4 11,2 10 5 29 16 E 20 48 0,0

tt = temperature
td = dewpoint
ff = wind speed
fx = gusts
dd = wind direction
vv = visibility
sd = sunshine duration
rr = precipitation

Next stations